Terminal Aerodrome Forecast
Issued by NWS

Home | Current Version | Previous Version | Text Only | Print | Product List | Glossary On
Versions: 1 2 3 4 5 6 7 8 9 10 11 12 13 14 15 16 17 18 19 20 21
000
FTUS43 KMPX 050520
TAFRNH
TAF
KRNH 050520Z 0506/0606 15005KT P6SM VCSH BKN045 OVC100
     FM050800 14006KT 5SM BR SCT020 BKN100
      TEMPO 0509/0513 BKN020
     FM051500 16009KT P6SM SCT035 BKN120
     FM051900 17013G20KT P6SM SCT040 BKN250
     FM060000 17007KT P6SM FEW045 BKN250=

USA.gov is the U.S. government's official web portal to all federal, state and local government web resources and services.